sensor_id;sensor_type;location;lat;lon;timestamp;pressure;altitude;pressure_sealevel;temperature;humidity
70407;BME280;57821;52.202;0.154;2023-05-12T00:02:25;102033.09;;;12.07;91.32
70407;BME280;57821;52.202;0.154;2023-05-12T00:04:52;102056.63;;;12.16;91.11
70407;BME280;57821;52.202;0.154;2023-05-12T00:07:19;102047.97;;;12.19;91.66
70407;BME280;57821;52.202;0.154;2023-05-12T00:09:45;102050.59;;;12.23;91.64
70407;BME280;57821;52.202;0.154;2023-05-12T00:12:12;102048.91;;;12.25;91.75
70407;BME280;57821;52.202;0.154;2023-05-12T00:14:38;102055.00;;;12.30;91.23
70407;BME280;57821;52.202;0.154;2023-05-12T00:17:05;102052.41;;;12.27;91.19
70407;BME280;57821;52.202;0.154;2023-05-12T00:19:32;102048.91;;;12.25;91.26
70407;BME280;57821;52.202;0.154;2023-05-12T00:21:59;102056.78;;;12.33;91.05
70407;BME280;57821;52.202;0.154;2023-05-12T00:24:26;102062.91;;;12.38;91.34
70407;BME280;57821;52.202;0.154;2023-05-12T00:26:52;102062.88;;;12.37;90.99
70407;BME280;57821;52.202;0.154;2023-05-12T00:29:19;102058.53;;;12.37;90.91
70407;BME280;57821;52.202;0.154;2023-05-12T00:31:46;102073.31;;;12.40;90.66
70407;BME280;57821;52.202;0.154;2023-05-12T00:34:12;102071.59;;;12.42;90.09
70407;BME280;57821;52.202;0.154;2023-05-12T00:36:39;102069.84;;;12.41;90.51
70407;BME280;57821;52.202;0.154;2023-05-12T00:39:05;102057.72;;;12.40;89.87
70407;BME280;57821;52.202;0.154;2023-05-12T00:41:32;102068.13;;;12.40;89.07
70407;BME280;57821;52.202;0.154;2023-05-12T00:43:58;102076.81;;;12.40;88.90
70407;BME280;57821;52.202;0.154;2023-05-12T00:46:25;102072.44;;;12.39;88.87
70407;BME280;57821;52.202;0.154;2023-05-12T00:48:52;102069.81;;;12.34;88.66
70407;BME280;57821;52.202;0.154;2023-05-12T00:51:19;102076.72;;;12.32;88.46
70407;BME280;57821;52.202;0.154;2023-05-12T00:53:47;102090.53;;;12.30;88.36
70407;BME280;57821;52.202;0.154;2023-05-12T00:56:17;102074.84;;;12.21;88.22
70407;BME280;57821;52.202;0.154;2023-05-12T00:58:45;102078.28;;;12.18;88.18
70407;BME280;57821;52.202;0.154;2023-05-12T01:01:13;102089.63;;;12.22;88.19
70407;BME280;57821;52.202;0.154;2023-05-12T01:03:40;102095.63;;;12.18;87.88
70407;BME280;57821;52.202;0.154;2023-05-12T01:06:42;102095.56;;;12.13;87.38
70407;BME280;57821;52.202;0.154;2023-05-12T01:09:11;102089.41;;;12.07;87.34
70407;BME280;57821;52.202;0.154;2023-05-12T01:11:38;102088.47;;;12.00;87.09
70407;BME280;57821;52.202;0.154;2023-05-12T01:14:05;102091.09;;;11.99;86.86
70407;BME280;57821;52.202;0.154;2023-05-12T01:16:43;102100.56;;;11.97;87.59
70407;BME280;57821;52.202;0.154;2023-05-12T01:19:23;102094.47;;;11.94;87.34
70407;BME280;57821;52.202;0.154;2023-05-12T01:21:51;102091.00;;;11.92;87.36
70407;BME280;57821;52.202;0.154;2023-05-12T01:24:23;102101.44;;;11.97;87.32
70407;BME280;57821;52.202;0.154;2023-05-12T01:26:52;102097.03;;;11.90;87.05
70407;BME280;57821;52.202;0.154;2023-05-12T01:29:20;102095.34;;;11.95;87.68
70407;BME280;57821;52.202;0.154;2023-05-12T01:31:48;102100.56;;;11.97;87.70
70407;BME280;57821;52.202;0.154;2023-05-12T01:34:15;102095.34;;;11.92;87.60
70407;BME280;57821;52.202;0.154;2023-05-12T01:36:42;102110.09;;;11.96;87.39
70407;BME280;57821;52.202;0.154;2023-05-12T01:39:09;102112.69;;;11.93;87.37
70407;BME280;57821;52.202;0.154;2023-05-12T01:41:36;102111.78;;;11.94;87.43
70407;BME280;57821;52.202;0.154;2023-05-12T01:44:02;102110.97;;;11.97;87.51
70407;BME280;57821;52.202;0.154;2023-05-12T01:46:29;102110.94;;;11.95;87.70
70407;BME280;57821;52.202;0.154;2023-05-12T01:48:58;102111.78;;;11.94;87.48
70407;BME280;57821;52.202;0.154;2023-05-12T01:51:25;102118.78;;;11.97;88.05
70407;BME280;57821;52.202;0.154;2023-05-12T01:53:53;102113.56;;;11.93;87.55
70407;BME280;57821;52.202;0.154;2023-05-12T01:56:20;102125.72;;;11.98;87.87
70407;BME280;57821;52.202;0.154;2023-05-12T01:58:46;102127.41;;;11.96;87.62
70407;BME280;57821;52.202;0.154;2023-05-12T02:01:13;102136.94;;;11.95;87.39
70407;BME280;57821;52.202;0.154;2023-05-12T02:03:40;102132.59;;;11.92;87.64
70407;BME280;57821;52.202;0.154;2023-05-12T02:06:11;102135.19;;;11.94;87.59
70407;BME280;57821;52.202;0.154;2023-05-12T02:08:38;102130.91;;;11.96;87.73
70407;BME280;57821;52.202;0.154;2023-05-12T02:11:07;102137.81;;;11.96;87.29
70407;BME280;57821;52.202;0.154;2023-05-12T02:13:34;102133.47;;;11.93;87.38
70407;BME280;57821;52.202;0.154;2023-05-12T02:16:02;102133.47;;;11.93;87.34
70407;BME280;57821;52.202;0.154;2023-05-12T02:18:29;102126.44;;;11.86;88.07
70407;BME280;57821;52.202;0.154;2023-05-12T02:20:55;102126.44;;;11.86;87.79
70407;BME280;57821;52.202;0.154;2023-05-12T02:23:22;102124.78;;;11.91;88.46
70407;BME280;57821;52.202;0.154;2023-05-12T02:25:49;102120.31;;;11.82;88.02
70407;BME280;57821;52.202;0.154;2023-05-12T02:28:15;102125.59;;;11.88;88.55
70407;BME280;57821;52.202;0.154;2023-05-12T02:30:46;102130.78;;;11.88;88.27
70407;BME280;57821;52.202;0.154;2023-05-12T02:33:15;102138.66;;;11.93;88.59
70407;BME280;57821;52.202;0.154;2023-05-12T02:35:43;102133.47;;;11.93;88.43
70407;BME280;57821;52.202;0.154;2023-05-12T02:38:10;102124.75;;;11.89;87.59
70407;BME280;57821;52.202;0.154;2023-05-12T02:40:37;102126.50;;;11.90;87.66
70407;BME280;57821;52.202;0.154;2023-05-12T02:43:04;102140.38;;;11.94;87.84
70407;BME280;57821;52.202;0.154;2023-05-12T02:45:31;102143.88;;;11.93;87.66
70407;BME280;57821;52.202;0.154;2023-05-12T02:47:58;102137.75;;;11.91;88.44
70407;BME280;57821;52.202;0.154;2023-05-12T02:50:24;102138.63;;;11.91;87.91
70407;BME280;57821;52.202;0.154;2023-05-12T02:52:51;102138.63;;;11.90;88.25
70407;BME280;57821;52.202;0.154;2023-05-12T02:55:18;102138.63;;;11.90;88.46
70407;BME280;57821;52.202;0.154;2023-05-12T02:57:44;102137.75;;;11.91;88.11
70407;BME280;57821;52.202;0.154;2023-05-12T03:00:11;102140.38;;;11.94;88.77
70407;BME280;57821;52.202;0.154;2023-05-12T03:02:39;102130.81;;;11.90;88.32
70407;BME280;57821;52.202;0.154;2023-05-12T03:05:06;102137.75;;;11.91;88.20
70407;BME280;57821;52.202;0.154;2023-05-12T03:07:34;102130.00;;;11.92;88.48
70407;BME280;57821;52.202;0.154;2023-05-12T03:10:01;102138.63;;;11.91;88.53
70407;BME280;57821;52.202;0.154;2023-05-12T03:12:29;102146.50;;;11.96;88.31
70407;BME280;57821;52.202;0.154;2023-05-12T03:14:59;102141.28;;;11.96;88.42
70407;BME280;57821;52.202;0.154;2023-05-12T03:17:26;102149.09;;;11.96;88.28
70407;BME280;57821;52.202;0.154;2023-05-12T03:19:52;102141.25;;;11.94;88.35
70407;BME280;57821;52.202;0.154;2023-05-12T03:22:19;102142.13;;;11.95;88.22
70407;BME280;57821;52.202;0.154;2023-05-12T03:24:46;102144.75;;;11.93;88.36
70407;BME280;57821;52.202;0.154;2023-05-12T03:27:12;102142.16;;;11.97;88.54
70407;BME280;57821;52.202;0.154;2023-05-12T03:29:39;102141.28;;;11.93;88.60
70407;BME280;57821;52.202;0.154;2023-05-12T03:32:06;102145.59;;;11.94;88.88
70407;BME280;57821;52.202;0.154;2023-05-12T03:34:33;102143.88;;;11.94;88.98
70407;BME280;57821;52.202;0.154;2023-05-12T03:36:59;102143.88;;;11.96;89.09
70407;BME280;57821;52.202;0.154;2023-05-12T03:39:26;102154.34;;;11.99;88.89
70407;BME280;57821;52.202;0.154;2023-05-12T03:41:53;102150.84;;;11.97;88.66
70407;BME280;57821;52.202;0.154;2023-05-12T03:44:20;102163.84;;;12.00;88.43
70407;BME280;57821;52.202;0.154;2023-05-12T03:46:46;102151.63;;;11.91;88.57
70407;BME280;57821;52.202;0.154;2023-05-12T03:49:13;102151.63;;;11.91;88.89
70407;BME280;57821;52.202;0.154;2023-05-12T03:51:39;102162.13;;;11.98;89.01
70407;BME280;57821;52.202;0.154;2023-05-12T03:54:06;102170.81;;;12.01;89.15
70407;BME280;57821;52.202;0.154;2023-05-12T03:56:33;102169.06;;;12.00;88.68
70407;BME280;57821;52.202;0.154;2023-05-12T03:58:59;102167.34;;;11.99;88.89
70407;BME280;57821;52.202;0.154;2023-05-12T04:01:26;102166.47;;;11.99;88.67
70407;BME280;57821;52.202;0.154;2023-05-12T04:03:53;102166.38;;;11.94;89.11
70407;BME280;57821;52.202;0.154;2023-05-12T04:06:19;102179.47;;;12.00;89.60
70407;BME280;57821;52.202;0.154;2023-05-12T04:08:46;102169.88;;;11.96;89.44
70407;BME280;57821;52.202;0.154;2023-05-12T04:11:13;102169.91;;;11.98;89.55
70407;BME280;57821;52.202;0.154;2023-05-12T04:13:43;102181.22;;;12.00;89.88
70407;BME280;57821;52.202;0.154;2023-05-12T04:16:10;102186.44;;;12.03;90.50
70407;BME280;57821;52.202;0.154;2023-05-12T04:18:36;102189.00;;;12.01;89.86
70407;BME280;57821;52.202;0.154;2023-05-12T04:21:03;102188.97;;;11.98;90.29
70407;BME280;57821;52.202;0.154;2023-05-12T04:23:29;102187.22;;;11.97;90.22
70407;BME280;57821;52.202;0.154;2023-05-12T04:25:56;102181.16;;;11.97;90.23
70407;BME280;57821;52.202;0.154;2023-05-12T04:28:22;102187.22;;;11.97;90.28
70407;BME280;57821;52.202;0.154;2023-05-12T04:30:49;102188.06;;;11.96;89.90
70407;BME280;57821;52.202;0.154;2023-05-12T04:33:16;102195.06;;;11.99;89.86
70407;BME280;57821;52.202;0.154;2023-05-12T04:35:43;102181.13;;;11.93;89.84
70407;BME280;57821;52.202;0.154;2023-05-12T04:38:11;102188.03;;;11.91;89.97
70407;BME280;57821;52.202;0.154;2023-05-12T04:40:38;102195.84;;;11.93;89.98
70407;BME280;57821;52.202;0.154;2023-05-12T04:43:05;102199.31;;;11.93;90.41
70407;BME280;57821;52.202;0.154;2023-05-12T04:45:32;102191.44;;;11.87;90.30
70407;BME280;57821;52.202;0.154;2023-05-12T04:47:58;102201.88;;;11.90;90.21
70407;BME280;57821;52.202;0.154;2023-05-12T04:50:25;102211.44;;;11.93;89.84
70407;BME280;57821;52.202;0.154;2023-05-12T04:52:51;102196.63;;;11.86;89.87
70407;BME280;57821;52.202;0.154;2023-05-12T04:55:18;102213.13;;;11.91;90.03
70407;BME280;57821;52.202;0.154;2023-05-12T04:57:45;102217.53;;;11.93;90.61
70407;BME280;57821;52.202;0.154;2023-05-12T05:00:12;102213.16;;;11.94;89.98
70407;BME280;57821;52.202;0.154;2023-05-12T05:02:38;102202.72;;;11.88;90.46
70407;BME280;57821;52.202;0.154;2023-05-12T05:05:06;102208.81;;;11.91;90.11
70407;BME280;57821;52.202;0.154;2023-05-12T05:07:33;102214.00;;;11.91;90.05
70407;BME280;57821;52.202;0.154;2023-05-12T05:10:00;102221.88;;;11.96;90.13
70407;BME280;57821;52.202;0.154;2023-05-12T05:12:27;102232.31;;;11.99;90.68
70407;BME280;57821;52.202;0.154;2023-05-12T05:14:54;102229.72;;;12.01;90.39
70407;BME280;57821;52.202;0.154;2023-05-12T05:17:21;102235.78;;;12.01;90.37
70407;BME280;57821;52.202;0.154;2023-05-12T05:19:48;102230.59;;;12.01;89.95
70407;BME280;57821;52.202;0.154;2023-05-12T05:22:24;102240.19;;;12.04;89.14
70407;BME280;57821;52.202;0.154;2023-05-12T05:24:51;102235.81;;;12.00;89.62
70407;BME280;57821;52.202;0.154;2023-05-12T05:27:17;102237.53;;;12.01;89.39
70407;BME280;57821;52.202;0.154;2023-05-12T05:29:44;102233.25;;;12.04;89.78
70407;BME280;57821;52.202;0.154;2023-05-12T05:32:11;102243.66;;;12.06;89.57
70407;BME280;57821;52.202;0.154;2023-05-12T05:34:38;102249.78;;;12.09;88.84
70407;BME280;57821;52.202;0.154;2023-05-12T05:37:05;102243.69;;;12.07;88.54
70407;BME280;57821;52.202;0.154;2023-05-12T05:39:31;102251.53;;;12.10;88.58
70407;BME280;57821;52.202;0.154;2023-05-12T05:41:58;102255.00;;;12.12;88.30
70407;BME280;57821;52.202;0.154;2023-05-12T05:44:25;102256.78;;;12.13;88.18
70407;BME280;57821;52.202;0.154;2023-05-12T05:46:52;102253.34;;;12.17;87.80
70407;BME280;57821;52.202;0.154;2023-05-12T05:49:19;102260.34;;;12.21;88.07
70407;BME280;57821;52.202;0.154;2023-05-12T05:51:46;102261.22;;;12.23;87.44
70407;BME280;57821;52.202;0.154;2023-05-12T05:54:14;102268.25;;;12.27;87.58
70407;BME280;57821;52.202;0.154;2023-05-12T05:56:41;102260.44;;;12.27;87.51
70407;BME280;57821;52.202;0.154;2023-05-12T05:59:07;102269.19;;;12.32;87.26
70407;BME280;57821;52.202;0.154;2023-05-12T06:01:34;102270.06;;;12.33;87.45
70407;BME280;57821;52.202;0.154;2023-05-12T06:04:01;102279.66;;;12.39;87.60
70407;BME280;57821;52.202;0.154;2023-05-12T06:06:28;102288.34;;;12.41;87.17
70407;BME280;57821;52.202;0.154;2023-05-12T06:08:55;102275.34;;;12.39;86.94
70407;BME280;57821;52.202;0.154;2023-05-12T06:11:22;102288.41;;;12.47;86.96
70407;BME280;57821;52.202;0.154;2023-05-12T06:13:48;102284.97;;;12.48;87.44
70407;BME280;57821;52.202;0.154;2023-05-12T06:16:16;102292.81;;;12.52;87.36
70407;BME280;57821;52.202;0.154;2023-05-12T06:18:42;102286.78;;;12.55;86.54
70407;BME280;57821;52.202;0.154;2023-05-12T06:21:10;102284.16;;;12.53;86.34
70407;BME280;57821;52.202;0.154;2023-05-12T06:23:37;102290.31;;;12.60;86.43
70407;BME280;57821;52.202;0.154;2023-05-12T06:26:04;102293.84;;;12.62;85.88
70407;BME280;57821;52.202;0.154;2023-05-12T06:28:30;102289.50;;;12.64;85.75
70407;BME280;57821;52.202;0.154;2023-05-12T06:30:57;102293.03;;;12.67;85.14
70407;BME280;57821;52.202;0.154;2023-05-12T06:33:24;102299.97;;;12.70;85.07
70407;BME280;57821;52.202;0.154;2023-05-12T06:35:50;102300.88;;;12.72;84.96
70407;BME280;57821;52.202;0.154;2023-05-12T06:38:17;102305.25;;;12.73;84.46
70407;BME280;57821;52.202;0.154;2023-05-12T06:40:43;102290.47;;;12.72;84.35
70407;BME280;57821;52.202;0.154;2023-05-12T06:43:10;102302.63;;;12.73;84.30
70407;BME280;57821;52.202;0.154;2023-05-12T06:45:36;102313.88;;;12.70;83.41
70407;BME280;57821;52.202;0.154;2023-05-12T06:48:06;102307.78;;;12.67;83.09
70407;BME280;57821;52.202;0.154;2023-05-12T06:50:33;102298.06;;;12.54;83.26
70407;BME280;57821;52.202;0.154;2023-05-12T06:53:00;102310.19;;;12.53;83.50
70407;BME280;57821;52.202;0.154;2023-05-12T06:55:27;102314.44;;;12.47;82.85
70407;BME280;57821;52.202;0.154;2023-05-12T06:57:53;102305.63;;;12.35;82.91
70407;BME280;57821;52.202;0.154;2023-05-12T07:00:22;102315.16;;;12.37;83.14
70407;BME280;57821;52.202;0.154;2023-05-12T07:02:49;102309.91;;;12.32;83.24
70407;BME280;57821;52.202;0.154;2023-05-12T07:05:16;102314.22;;;12.28;83.48
70407;BME280;57821;52.202;0.154;2023-05-12T07:07:43;102324.56;;;12.25;83.16
70407;BME280;57821;52.202;0.154;2023-05-12T07:10:10;102320.19;;;12.24;83.68
70407;BME280;57821;52.202;0.154;2023-05-12T07:12:36;102318.38;;;12.19;83.31
70407;BME280;57821;52.202;0.154;2023-05-12T07:15:04;102314.97;;;12.21;84.12
70407;BME280;57821;52.202;0.154;2023-05-12T07:17:30;102325.47;;;12.27;83.93
70407;BME280;57821;52.202;0.154;2023-05-12T07:19:57;102324.63;;;12.31;83.67
70407;BME280;57821;52.202;0.154;2023-05-12T07:22:24;102333.34;;;12.33;83.76
70407;BME280;57821;52.202;0.154;2023-05-12T07:24:51;102319.53;;;12.38;83.96
70407;BME280;57821;52.202;0.154;2023-05-12T07:27:18;102325.63;;;12.41;84.21
70407;BME280;57821;52.202;0.154;2023-05-12T07:29:44;102324.84;;;12.45;84.07
70407;BME280;57821;52.202;0.154;2023-05-12T07:32:11;102315.31;;;12.47;83.91
70407;BME280;57821;52.202;0.154;2023-05-12T07:34:38;102330.13;;;12.53;83.61
70407;BME280;57821;52.202;0.154;2023-05-12T07:37:04;102334.56;;;12.60;84.38
70407;BME280;57821;52.202;0.154;2023-05-12T07:39:31;102327.63;;;12.60;83.79
70407;BME280;57821;52.202;0.154;2023-05-12T07:41:58;102322.47;;;12.63;84.32
70407;BME280;57821;52.202;0.154;2023-05-12T07:44:25;102333.81;;;12.68;84.13
70407;BME280;57821;52.202;0.154;2023-05-12T07:46:52;102322.50;;;12.66;83.82
70407;BME280;57821;52.202;0.154;2023-05-12T07:49:19;102332.97;;;12.69;83.18
70407;BME280;57821;52.202;0.154;2023-05-12T07:51:45;102344.31;;;12.76;83.37
70407;BME280;57821;52.202;0.154;2023-05-12T07:54:12;102333.00;;;12.75;83.06
70407;BME280;57821;52.202;0.154;2023-05-12T07:56:39;102338.31;;;12.80;82.59
70407;BME280;57821;52.202;0.154;2023-05-12T07:59:05;102338.28;;;12.79;81.69
70407;BME280;57821;52.202;0.154;2023-05-12T08:01:32;102347.88;;;12.84;82.57
70407;BME280;57821;52.202;0.154;2023-05-12T08:03:59;102354.84;;;12.85;82.41
70407;BME280;57821;52.202;0.154;2023-05-12T08:06:26;102354.88;;;12.88;81.66
70407;BME280;57821;52.202;0.154;2023-05-12T08:08:52;102342.69;;;12.87;81.98
70407;BME280;57821;52.202;0.154;2023-05-12T08:11:19;102339.22;;;12.85;82.18
70407;BME280;57821;52.202;0.154;2023-05-12T08:13:46;102355.84;;;12.96;81.91
70407;BME280;57821;52.202;0.154;2023-05-12T08:16:13;102347.16;;;12.96;81.67
70407;BME280;57821;52.202;0.154;2023-05-12T08:18:39;102343.69;;;12.97;81.61
70407;BME280;57821;52.202;0.154;2023-05-12T08:21:06;102331.50;;;12.94;81.28
70407;BME280;57821;52.202;0.154;2023-05-12T08:23:33;102337.66;;;13.01;81.83
70407;BME280;57821;52.202;0.154;2023-05-12T08:25:59;102343.00;;;13.10;81.07
70407;BME280;57821;52.202;0.154;2023-05-12T08:28:26;102343.94;;;13.15;81.65
70407;BME280;57821;52.202;0.154;2023-05-12T08:30:52;102339.63;;;13.15;81.24
70407;BME280;57821;52.202;0.154;2023-05-12T08:33:19;102344.00;;;13.23;80.73
70407;BME280;57821;52.202;0.154;2023-05-12T08:35:46;102357.16;;;13.32;80.75
70407;BME280;57821;52.202;0.154;2023-05-12T08:38:13;102360.66;;;13.37;79.75
70407;BME280;57821;52.202;0.154;2023-05-12T08:40:46;102352.03;;;13.39;79.78
70407;BME280;57821;52.202;0.154;2023-05-12T08:43:25;102350.28;;;13.38;79.64
70407;BME280;57821;52.202;0.154;2023-05-12T08:45:56;102351.97;;;13.36;79.32
70407;BME280;57821;52.202;0.154;2023-05-12T08:48:25;102361.59;;;13.43;79.87
70407;BME280;57821;52.202;0.154;2023-05-12T08:50:53;102353.88;;;13.51;79.34
70407;BME280;57821;52.202;0.154;2023-05-12T08:53:20;102349.63;;;13.62;79.24
70407;BME280;57821;52.202;0.154;2023-05-12T08:55:48;102363.63;;;13.73;78.95
70407;BME280;57821;52.202;0.154;2023-05-12T08:58:35;102367.13;;;13.77;78.70
70407;BME280;57821;52.202;0.154;2023-05-12T09:01:09;102367.16;;;13.81;78.82
70407;BME280;57821;52.202;0.154;2023-05-12T09:03:36;102374.13;;;13.82;78.30
70407;BME280;57821;52.202;0.154;2023-05-12T09:06:04;102354.97;;;13.80;78.43
70407;BME280;57821;52.202;0.154;2023-05-12T09:08:32;102355.84;;;13.81;78.01
70407;BME280;57821;52.202;0.154;2023-05-12T09:10:59;102346.25;;;13.75;78.24
70407;BME280;57821;52.202;0.154;2023-05-12T09:14:14;102356.72;;;13.78;77.72
70407;BME280;57821;52.202;0.154;2023-05-12T09:16:14;102359.31;;;13.78;77.88
70407;BME280;57821;52.202;0.154;2023-05-12T09:18:51;102362.81;;;13.79;77.61
70407;BME280;57821;52.202;0.154;2023-05-12T09:21:19;102368.91;;;13.79;77.93
70407;BME280;57821;52.202;0.154;2023-05-12T09:26:19;102355.81;;;13.73;76.83
70407;BME280;57821;52.202;0.154;2023-05-12T09:28:46;102357.50;;;13.71;76.71
70407;BME280;57821;52.202;0.154;2023-05-12T09:31:31;102367.94;;;13.68;76.58
70407;BME280;57821;52.202;0.154;2023-05-12T09:33:57;102371.34;;;13.64;76.99
70407;BME280;57821;52.202;0.154;2023-05-12T09:36:24;102353.94;;;13.60;76.60
70407;BME280;57821;52.202;0.154;2023-05-12T09:39:05;102364.31;;;13.57;77.13
70407;BME280;57821;52.202;0.154;2023-05-12T09:41:36;102373.88;;;13.55;77.04
70407;BME280;57821;52.202;0.154;2023-05-12T09:44:03;102371.28;;;13.55;76.87
70407;BME280;57821;52.202;0.154;2023-05-12T09:46:30;102371.25;;;13.53;77.17
70407;BME280;57821;52.202;0.154;2023-05-12T09:48:57;102373.84;;;13.52;77.20
70407;BME280;57821;52.202;0.154;2023-05-12T09:51:25;102384.25;;;13.50;77.95
70407;BME280;57821;52.202;0.154;2023-05-12T09:53:52;102385.06;;;13.45;77.87
70407;BME280;57821;52.202;0.154;2023-05-12T09:56:19;102377.97;;;13.32;78.29
70407;BME280;57821;52.202;0.154;2023-05-12T09:58:47;102373.53;;;13.23;79.47
70407;BME280;57821;52.202;0.154;2023-05-12T10:01:16;102383.06;;;13.23;79.45
70407;BME280;57821;52.202;0.154;2023-05-12T10:03:54;102384.66;;;13.11;80.53
70407;BME280;57821;52.202;0.154;2023-05-12T10:06:25;102385.38;;;13.00;81.28
70407;BME280;57821;52.202;0.154;2023-05-12T10:11:31;102373.88;;;12.80;82.43
70407;BME280;57821;52.202;0.154;2023-05-12T10:13:58;102398.09;;;12.74;82.58
70407;BME280;57821;52.202;0.154;2023-05-12T10:16:27;102390.13;;;12.65;83.70
70407;BME280;57821;52.202;0.154;2023-05-12T10:18:55;102380.44;;;12.53;84.67
70407;BME280;57821;52.202;0.154;2023-05-12T10:21:23;102395.81;;;12.37;91.04
70407;BME280;57821;52.202;0.154;2023-05-12T10:23:53;102390.38;;;12.21;93.57
70407;BME280;57821;52.202;0.154;2023-05-12T10:26:36;102389.34;;;12.10;96.77
70407;BME280;57821;52.202;0.154;2023-05-12T10:29:02;102386.53;;;11.98;98.90
70407;BME280;57821;52.202;0.154;2023-05-12T10:31:29;102389.88;;;11.91;100.00
70407;BME280;57821;52.202;0.154;2023-05-12T10:33:57;102380.13;;;11.76;100.00
70407;BME280;57821;52.202;0.154;2023-05-12T10:36:24;102395.72;;;11.76;100.00
70407;BME280;57821;52.202;0.154;2023-05-12T10:38:51;102406.91;;;11.74;100.00
70407;BME280;57821;52.202;0.154;2023-05-12T10:41:33;102404.13;;;11.65;100.00
70407;BME280;57821;52.202;0.154;2023-05-12T10:44:00;102404.91;;;11.61;100.00
70407;BME280;57821;52.202;0.154;2023-05-12T10:46:26;102408.31;;;11.57;100.00
70407;BME280;57821;52.202;0.154;2023-05-12T10:49:02;102401.19;;;11.46;100.00
70407;BME280;57821;52.202;0.154;2023-05-12T10:51:31;102420.34;;;11.51;100.00
70407;BME280;57821;52.202;0.154;2023-05-12T10:54:06;102413.34;;;11.49;100.00
70407;BME280;57821;52.202;0.154;2023-05-12T10:59:24;102385.50;;;11.40;100.00
70407;BME280;57821;52.202;0.154;2023-05-12T11:04:21;102375.91;;;11.38;100.00
70407;BME280;57821;52.202;0.154;2023-05-12T11:06:57;102373.34;;;11.39;100.00
70407;BME280;57821;52.202;0.154;2023-05-12T11:09:24;102388.16;;;11.45;100.00
70407;BME280;57821;52.202;0.154;2023-05-12T11:11:52;102375.16;;;11.43;100.00
70407;BME280;57821;52.202;0.154;2023-05-12T11:14:19;102368.91;;;11.34;100.00
70407;BME280;57821;52.202;0.154;2023-05-12T11:16:46;102384.53;;;11.35;100.00
70407;BME280;57821;52.202;0.154;2023-05-12T11:19:13;102371.47;;;11.32;100.00
70407;BME280;57821;52.202;0.154;2023-05-12T11:21:39;102374.03;;;11.29;100.00
70407;BME280;57821;52.202;0.154;2023-05-12T11:24:06;102369.69;;;11.28;100.00
70407;BME280;57821;52.202;0.154;2023-05-12T11:26:33;102367.09;;;11.28;100.00
70407;BME280;57821;52.202;0.154;2023-05-12T11:29:02;102366.16;;;11.26;100.00
70407;BME280;57821;52.202;0.154;2023-05-12T11:31:28;102368.81;;;11.28;100.00
70407;BME280;57821;52.202;0.154;2023-05-12T11:34:03;102355.75;;;11.23;100.00
70407;BME280;57821;52.202;0.154;2023-05-12T11:36:42;102369.47;;;11.19;100.00
70407;BME280;57821;52.202;0.154;2023-05-12T11:39:28;102366.13;;;11.23;100.00
70407;BME280;57821;52.202;0.154;2023-05-12T11:42:00;102367.81;;;11.21;100.00
70407;BME280;57821;52.202;0.154;2023-05-12T11:44:46;102390.44;;;11.28;100.00
70407;BME280;57821;52.202;0.154;2023-05-12T11:47:13;102385.25;;;11.28;100.00
70407;BME280;57821;52.202;0.154;2023-05-12T11:49:51;102376.44;;;11.20;100.00
70407;BME280;57821;52.202;0.154;2023-05-12T11:52:20;102385.94;;;11.18;100.00
70407;BME280;57821;52.202;0.154;2023-05-12T11:54:57;102386.78;;;11.17;100.00
70407;BME280;57821;52.202;0.154;2023-05-12T11:57:32;102386.78;;;11.17;100.00
70407;BME280;57821;52.202;0.154;2023-05-12T12:00:04;102380.66;;;11.15;100.00
70407;BME280;57821;52.202;0.154;2023-05-12T12:02:31;102383.13;;;11.09;100.00
70407;BME280;57821;52.202;0.154;2023-05-12T12:04:58;102380.63;;;11.12;100.00
70407;BME280;57821;52.202;0.154;2023-05-12T12:07:33;102375.38;;;11.10;100.00
70407;BME280;57821;52.202;0.154;2023-05-12T12:10:13;102386.69;;;11.14;100.00
70407;BME280;57821;52.202;0.154;2023-05-12T12:12:41;102390.22;;;11.16;100.00
70407;BME280;57821;52.202;0.154;2023-05-12T12:15:09;102379.88;;;11.18;100.00
70407;BME280;57821;52.202;0.154;2023-05-12T12:17:36;102376.31;;;11.14;100.00
70407;BME280;57821;52.202;0.154;2023-05-12T12:20:03;102379.00;;;11.19;100.00
70407;BME280;57821;52.202;0.154;2023-05-12T12:22:30;102372.97;;;11.18;100.00
70407;BME280;57821;52.202;0.154;2023-05-12T12:24:56;102369.56;;;11.22;100.00
70407;BME280;57821;52.202;0.154;2023-05-12T12:27:23;102373.00;;;11.21;100.00
70407;BME280;57821;52.202;0.154;2023-05-12T12:29:49;102380.81;;;11.23;100.00
70407;BME280;57821;52.202;0.154;2023-05-12T12:32:16;102372.16;;;11.22;100.00
70407;BME280;57821;52.202;0.154;2023-05-12T12:34:43;102373.88;;;11.22;100.00
70407;BME280;57821;52.202;0.154;2023-05-12T12:37:09;102379.94;;;11.22;100.00
70407;BME280;57821;52.202;0.154;2023-05-12T12:39:36;102388.69;;;11.27;100.00
70407;BME280;57821;52.202;0.154;2023-05-12T12:42:03;102385.31;;;11.31;100.00
70407;BME280;57821;52.202;0.154;2023-05-12T12:44:30;102393.16;;;11.34;100.00
70407;BME280;57821;52.202;0.154;2023-05-12T12:46:57;102391.56;;;11.41;100.00
70407;BME280;57821;52.202;0.154;2023-05-12T12:49:23;102394.16;;;11.42;100.00
70407;BME280;57821;52.202;0.154;2023-05-12T12:51:50;102393.41;;;11.46;100.00
70407;BME280;57821;52.202;0.154;2023-05-12T12:54:16;102395.16;;;11.49;100.00
70407;BME280;57821;52.202;0.154;2023-05-12T12:56:43;102397.84;;;11.52;100.00
70407;BME280;57821;52.202;0.154;2023-05-12T12:59:09;102399.59;;;11.54;100.00
70407;BME280;57821;52.202;0.154;2023-05-12T13:01:37;102395.22;;;11.52;100.00
70407;BME280;57821;52.202;0.154;2023-05-12T13:04:03;102404.03;;;11.59;100.00